Aérodrome :
LOGIN :

S'inscrire | Disclaimer

   EN    FR    IT 

 










Légende :    VFR   VFR Marginal   IFR   IFR Intensif   IFR Très Intensif
Visi : 
Plafond : 
>= 8 km
>= 3000ft
5 à 8 km
1000 à 3000 ft
1500m à 5 km
500 à 1000 ft
800 à 1500m
200 à 500 ft
< 800m
< 200 ft
Symboles :   Orages  Brouillard  Fortes neiges  Fortes précipitations  Vent > 20 kt
SIGMETs :   Divers  Orages  Givrage  Turbulence  Onde Orograph.  Cendres Volcan.






- Altitude de l'aérodrome : 821 ft
- Code IATA : LYS


LFLL - Lyon St Exupéry / Satolas

DERNIER METAR :
  • 010200Z AUTO 25003KT 210V270 CAVOK 02/M04 Q1019 NOSIG

METARs EXPIRÉS :
  • 010130Z AUTO 23003KT CAVOK 02/M04 Q1019
  • 010100Z AUTO 23004KT CAVOK 03/M04 Q1019 NOSIG
  • 010030Z AUTO 22006KT CAVOK 04/M04 Q1019 NOSIG
  • 010000Z AUTO 22006KT CAVOK 04/M04 Q1019 NOSIG

TAF TAF LFLL
Valide du 01 à 00h jusqu'au 02 à 06h UTC


312300Z 0100/0206 VRB02KT CAVOK
TEMPO 0115/0119 36005KT



MET'MAP, la Météo Aéronautique d'un coup d'oeil ! - Copyright ORBIFLY Décembre 2007 - Disclaimer

ORBIFLY MET'MAP TEAM :

Programmation & Développement : Alexandra Zaïnal
Sur une idée originale de : Baudouin d'Aumeries
Assistance à la programmation : Marc-Olivier Méhu
Soutien technique & logistique : Manuel Goepfert

Contact : metmap@orbifly.com




SOURCES & CREDITS :

   NOAA